createdAt,value
2023-03-18T00:00:13.690Z,3.60
2023-03-18T00:02:42.178Z,3.70
2023-03-18T00:05:11.191Z,3.80
2023-03-18T00:07:38.160Z,3.80
2023-03-18T00:10:06.903Z,3.80
2023-03-18T00:12:34.568Z,3.80
2023-03-18T00:15:02.541Z,3.90
2023-03-18T00:17:29.350Z,3.90
2023-03-18T00:19:56.195Z,4.00
2023-03-18T00:22:22.964Z,3.80
2023-03-18T00:24:49.775Z,3.80
2023-03-18T00:27:16.667Z,3.80
2023-03-18T00:29:46.296Z,3.80
2023-03-18T00:32:13.064Z,3.80
2023-03-18T00:34:40.706Z,3.90
2023-03-18T00:37:10.508Z,3.90
2023-03-18T00:39:40.117Z,3.90
2023-03-18T00:42:10.815Z,3.90
2023-03-18T00:44:38.615Z,3.90
2023-03-18T00:47:05.951Z,4.10
2023-03-18T00:49:33.289Z,4.10
2023-03-18T00:52:02.681Z,4.10
2023-03-18T00:54:30.323Z,4.00
2023-03-18T00:56:57.840Z,4.10
2023-03-18T00:59:24.667Z,4.10
2023-03-18T01:01:51.493Z,4.10
2023-03-18T01:04:18.771Z,4.10
2023-03-18T01:06:45.589Z,4.00
2023-03-18T01:09:12.940Z,4.00
2023-03-18T01:11:39.730Z,4.00
2023-03-18T01:14:06.621Z,4.10
2023-03-18T01:16:33.653Z,4.10
2023-03-18T01:19:00.825Z,4.00
2023-03-18T01:21:27.949Z,4.00
2023-03-18T01:23:54.813Z,3.90
2023-03-18T01:26:22.220Z,3.90
2023-03-18T01:28:49.189Z,4.00
2023-03-18T01:31:16.421Z,4.00
2023-03-18T01:33:43.225Z,4.00
2023-03-18T01:36:10.607Z,4.00
2023-03-18T01:38:38.424Z,4.00
2023-03-18T01:41:05.357Z,4.00
2023-03-18T01:43:39.127Z,4.00
2023-03-18T01:46:48.388Z,4.10
2023-03-18T01:49:27.310Z,3.90
2023-03-18T01:52:00.317Z,3.90
2023-03-18T01:54:33.074Z,3.90
2023-03-18T01:57:01.210Z,3.90
2023-03-18T01:59:29.868Z,3.90
2023-03-18T02:02:12.088Z,3.80
2023-03-18T02:04:51.470Z,3.90
2023-03-18T02:07:27.997Z,4.00
2023-03-18T02:09:58.729Z,3.90
2023-03-18T02:12:30.040Z,3.90
2023-03-18T02:14:57.170Z,3.80
2023-03-18T02:17:28.071Z,3.80
2023-03-18T02:20:32.301Z,3.80
2023-03-18T02:23:06.525Z,3.60
2023-03-18T02:26:15.557Z,3.60
2023-03-18T02:28:44.291Z,3.70
2023-03-18T02:31:13.816Z,3.60
2023-03-18T02:33:42.757Z,3.70
2023-03-18T02:36:24.918Z,3.50
2023-03-18T02:38:51.651Z,3.60
2023-03-18T02:41:22.848Z,3.70
2023-03-18T02:43:51.234Z,3.60
2023-03-18T02:46:28.851Z,3.50
2023-03-18T02:48:56.337Z,3.60
2023-03-18T02:51:23.563Z,3.50
2023-03-18T02:53:54.139Z,3.60
2023-03-18T02:56:20.879Z,3.60
2023-03-18T02:58:51.690Z,3.50
2023-03-18T03:01:20.084Z,3.50
2023-03-18T03:03:49.340Z,3.50
2023-03-18T03:06:17.036Z,3.50
2023-03-18T03:08:44.815Z,3.50
2023-03-18T03:11:11.640Z,3.50
2023-03-18T03:13:40.851Z,3.40
2023-03-18T03:16:09.442Z,3.40
2023-03-18T03:18:36.338Z,3.40
2023-03-18T03:21:03.733Z,3.40
2023-03-18T03:23:31.199Z,3.40
2023-03-18T03:25:58.419Z,3.50
2023-03-18T03:28:25.302Z,3.50
2023-03-18T03:30:52.164Z,3.50
2023-03-18T03:33:19.137Z,3.40
2023-03-18T03:35:45.996Z,3.40
2023-03-18T03:38:12.864Z,3.40
2023-03-18T03:40:39.778Z,3.40
2023-03-18T03:43:12.850Z,3.40
2023-03-18T03:45:40.339Z,3.40
2023-03-18T03:48:07.146Z,3.40
2023-03-18T03:50:34.071Z,3.40
2023-03-18T03:53:02.515Z,3.40
2023-03-18T03:55:29.474Z,3.40
2023-03-18T03:57:56.594Z,3.40
2023-03-18T04:00:24.692Z,3.30
2023-03-18T04:02:53.143Z,3.30
2023-03-18T04:05:24.239Z,3.40
2023-03-18T04:07:52.383Z,3.40
2023-03-18T04:10:21.143Z,3.40
2023-03-18T04:12:48.808Z,3.40
2023-03-18T04:15:18.433Z,3.40
2023-03-18T04:17:45.498Z,3.50
2023-03-18T04:20:13.002Z,3.50
2023-03-18T04:22:40.612Z,3.50
2023-03-18T04:25:08.377Z,3.50
2023-03-18T04:27:35.170Z,3.50
2023-03-18T04:30:01.972Z,3.50
2023-03-18T04:32:28.865Z,3.50
2023-03-18T04:34:55.765Z,3.50
2023-03-18T04:37:22.547Z,3.50
2023-03-18T04:39:49.774Z,3.50
2023-03-18T04:42:17.869Z,3.60
2023-03-18T04:44:45.476Z,3.40
2023-03-18T04:47:14.250Z,3.40
2023-03-18T04:49:41.332Z,3.30
2023-03-18T04:52:08.530Z,3.20
2023-03-18T04:54:37.321Z,3.40
2023-03-18T04:57:06.423Z,3.30
2023-03-18T04:59:33.604Z,3.40
2023-03-18T05:02:00.695Z,3.40
2023-03-18T05:04:28.307Z,3.50
2023-03-18T05:06:55.085Z,3.40
2023-03-18T05:09:22.092Z,3.50
2023-03-18T05:11:48.843Z,3.40
2023-03-18T05:14:15.745Z,3.50
2023-03-18T05:16:43.321Z,3.60
2023-03-18T05:19:10.714Z,3.60
2023-03-18T05:21:38.171Z,3.50
2023-03-18T05:24:05.147Z,3.60
2023-03-18T05:26:31.907Z,3.60
2023-03-18T05:28:59.450Z,3.60
2023-03-18T05:31:26.354Z,3.70
2023-03-18T05:33:53.145Z,3.70
2023-03-18T05:36:19.981Z,3.70
2023-03-18T05:38:46.806Z,3.80
2023-03-18T05:41:13.857Z,3.80
2023-03-18T05:43:41.023Z,3.80
2023-03-18T05:46:07.987Z,3.80
2023-03-18T05:48:34.877Z,3.70
2023-03-18T05:51:01.685Z,3.80
2023-03-18T05:53:28.693Z,4.10
2023-03-18T05:55:56.494Z,4.10
2023-03-18T05:58:24.099Z,4.00
2023-03-18T06:00:50.939Z,4.00
2023-03-18T06:03:18.341Z,3.90
2023-03-18T06:05:45.144Z,3.90
2023-03-18T06:08:12.058Z,3.90
2023-03-18T06:10:38.942Z,3.90
2023-03-18T06:13:05.951Z,3.90
2023-03-18T06:15:33.422Z,4.00
2023-03-18T06:18:00.518Z,4.10
2023-03-18T06:20:27.311Z,4.10
2023-03-18T06:22:54.206Z,4.20
2023-03-18T06:25:21.778Z,4.20
2023-03-18T06:27:49.072Z,4.30
2023-03-18T06:30:17.119Z,4.40
2023-03-18T06:32:44.598Z,4.50
2023-03-18T06:35:12.152Z,4.50
2023-03-18T06:37:40.095Z,4.50
2023-03-18T06:40:09.107Z,4.40
2023-03-18T06:42:36.362Z,4.50
2023-03-18T06:45:04.065Z,4.50
2023-03-18T06:47:31.321Z,4.30
2023-03-18T06:49:58.330Z,4.00
2023-03-18T06:52:25.516Z,3.90
2023-03-18T06:54:52.322Z,4.00
2023-03-18T06:57:20.462Z,4.20
2023-03-18T06:59:48.074Z,4.10
2023-03-18T07:02:15.519Z,4.00
2023-03-18T07:04:42.613Z,3.90
2023-03-18T07:07:09.831Z,3.80
2023-03-18T07:09:37.317Z,3.90
2023-03-18T07:12:04.325Z,3.90
2023-03-18T07:14:31.127Z,3.90
2023-03-18T07:16:58.290Z,4.00
2023-03-18T07:19:25.191Z,4.00
2023-03-18T07:21:52.358Z,4.10
2023-03-18T07:24:21.238Z,4.30
2023-03-18T07:26:50.188Z,4.40
2023-03-18T07:29:18.138Z,4.70
2023-03-18T07:31:45.118Z,4.60
2023-03-18T07:34:13.775Z,4.80
2023-03-18T07:36:40.866Z,4.80
2023-03-18T07:39:08.524Z,4.70
2023-03-18T07:41:37.781Z,4.50
2023-03-18T07:44:06.816Z,4.40
2023-03-18T07:46:33.937Z,4.40
2023-03-18T07:49:01.130Z,4.50
2023-03-18T07:51:27.976Z,4.60
2023-03-18T07:53:55.282Z,4.60
2023-03-18T07:56:22.159Z,4.70
2023-03-18T07:58:48.911Z,4.80
2023-03-18T08:01:19.532Z,5.00
2023-03-18T08:03:47.269Z,5.10
2023-03-18T08:06:15.755Z,5.00
2023-03-18T08:08:43.669Z,5.30
2023-03-18T08:11:10.946Z,5.60
2023-03-18T08:13:38.858Z,5.70
2023-03-18T08:16:06.612Z,5.80
2023-03-18T08:18:33.544Z,5.80
2023-03-18T08:21:01.061Z,5.80
2023-03-18T08:23:28.014Z,5.80
2023-03-18T08:25:54.934Z,5.90
2023-03-18T08:28:21.688Z,5.90
2023-03-18T08:30:48.860Z,6.10
2023-03-18T08:33:16.030Z,6.20
2023-03-18T08:35:42.972Z,6.00
2023-03-18T08:38:09.967Z,6.00
2023-03-18T08:40:37.097Z,5.90
2023-03-18T08:43:03.882Z,5.90
2023-03-18T08:45:30.979Z,6.00
2023-03-18T08:47:58.705Z,6.10
2023-03-18T08:50:28.670Z,6.30
2023-03-18T08:52:57.889Z,6.30
2023-03-18T08:55:37.327Z,6.30
2023-03-18T08:58:05.851Z,6.10
2023-03-18T09:00:37.833Z,6.10
2023-03-18T09:03:05.548Z,6.10
2023-03-18T09:05:33.150Z,6.40
2023-03-18T09:08:00.466Z,6.70
2023-03-18T09:10:28.070Z,6.80
2023-03-18T09:12:56.866Z,6.50
2023-03-18T09:15:23.787Z,6.50
2023-03-18T09:18:07.843Z,6.50
2023-03-18T09:20:37.862Z,6.40
2023-03-18T09:23:04.889Z,6.40
2023-03-18T09:25:32.434Z,6.30
2023-03-18T09:28:01.030Z,6.40
2023-03-18T09:30:28.090Z,6.30
2023-03-18T09:32:55.026Z,6.00
2023-03-18T09:35:21.979Z,6.00
2023-03-18T09:37:49.030Z,6.10
2023-03-18T09:40:30.632Z,6.10
2023-03-18T09:43:18.306Z,6.00
2023-03-18T09:45:57.055Z,5.90
2023-03-18T09:49:00.170Z,6.00
2023-03-18T09:51:46.707Z,5.80
2023-03-18T09:54:13.393Z,5.70
2023-03-18T09:56:40.968Z,5.70
2023-03-18T09:59:17.239Z,5.80
2023-03-18T10:01:47.384Z,5.90
2023-03-18T10:04:46.188Z,6.10
2023-03-18T10:07:23.135Z,6.00
2023-03-18T10:09:59.487Z,6.10
2023-03-18T10:12:33.983Z,6.20
2023-03-18T10:15:15.247Z,6.20
2023-03-18T10:17:52.559Z,6.20
2023-03-18T10:20:19.528Z,6.20
2023-03-18T10:23:03.636Z,6.30
2023-03-18T10:25:45.879Z,6.40
2023-03-18T10:28:52.317Z,6.30
2023-03-18T10:31:45.827Z,6.20
2023-03-18T10:34:18.721Z,6.40
2023-03-18T10:37:12.675Z,6.40
2023-03-18T10:39:40.020Z,6.60
2023-03-18T10:42:23.153Z,6.90
2023-03-18T10:44:50.921Z,6.80
2023-03-18T10:47:28.272Z,6.70
2023-03-18T10:50:18.375Z,6.80
2023-03-18T10:52:53.474Z,6.70
2023-03-18T10:55:25.160Z,6.50
2023-03-18T10:57:51.956Z,6.60
2023-03-18T11:00:31.230Z,6.70
2023-03-18T11:02:58.809Z,6.70
2023-03-18T11:05:37.998Z,6.10
2023-03-18T11:08:28.824Z,6.10
2023-03-18T11:10:55.670Z,6.10
2023-03-18T11:13:23.451Z,6.40
2023-03-18T11:15:53.078Z,6.60
2023-03-18T11:18:25.949Z,6.70
2023-03-18T11:21:01.363Z,6.60
2023-03-18T11:23:56.168Z,6.60
2023-03-18T11:26:26.320Z,6.70
2023-03-18T11:29:17.821Z,6.90
2023-03-18T11:31:58.304Z,7.20
2023-03-18T11:34:30.541Z,7.50
2023-03-18T11:37:05.600Z,7.10
2023-03-18T11:39:37.547Z,7.00
2023-03-18T11:42:22.018Z,7.30
2023-03-18T11:44:55.297Z,7.70
2023-03-18T11:47:35.131Z,7.30
2023-03-18T11:50:04.238Z,6.80
2023-03-18T11:52:49.882Z,6.70
2023-03-18T11:55:43.291Z,6.90
2023-03-18T11:58:55.470Z,7.10
2023-03-18T12:01:41.328Z,7.50
2023-03-18T12:04:20.573Z,7.60
2023-03-18T12:07:24.229Z,7.50
2023-03-18T12:09:56.875Z,7.40
2023-03-18T12:12:40.887Z,7.60
2023-03-18T12:15:47.262Z,8.10
2023-03-18T12:18:32.044Z,8.10
2023-03-18T12:21:26.052Z,8.00
2023-03-18T12:24:02.647Z,8.30
2023-03-18T12:26:38.543Z,8.30
2023-03-18T12:29:29.299Z,7.30
2023-03-18T12:32:24.952Z,7.20
2023-03-18T12:35:03.809Z,7.80
2023-03-18T12:37:45.491Z,8.00
2023-03-18T12:40:34.300Z,7.90
2023-03-18T12:43:11.012Z,8.10
2023-03-18T12:45:45.330Z,8.40
2023-03-18T12:48:17.723Z,8.60
2023-03-18T12:50:51.583Z,8.40
2023-03-18T12:53:27.232Z,8.40
2023-03-18T12:56:01.774Z,8.60
2023-03-18T12:58:37.879Z,8.60
2023-03-18T13:01:10.553Z,8.90
2023-03-18T13:03:41.272Z,9.40
2023-03-18T13:06:20.652Z,9.60
2023-03-18T13:08:56.688Z,9.50
2023-03-18T13:11:48.425Z,9.10
2023-03-18T13:14:20.033Z,8.80
2023-03-18T13:16:48.657Z,8.60
2023-03-18T13:19:15.825Z,8.40
2023-03-18T13:21:48.383Z,8.60
2023-03-18T13:24:26.403Z,8.70
2023-03-18T13:27:19.693Z,9.20
2023-03-18T13:29:57.660Z,9.60
2023-03-18T13:32:47.780Z,9.50
2023-03-18T13:35:50.697Z,9.60
2023-03-18T13:38:36.492Z,9.50
2023-03-18T13:41:32.621Z,9.60
2023-03-18T13:44:06.090Z,9.50
2023-03-18T13:46:34.951Z,9.00
2023-03-18T13:49:04.063Z,9.10
2023-03-18T13:51:30.884Z,9.20
2023-03-18T13:54:01.622Z,9.10
2023-03-18T13:56:40.690Z,9.30
2023-03-18T13:59:28.610Z,9.20
2023-03-18T14:02:04.623Z,8.90
2023-03-18T14:04:32.420Z,8.90
2023-03-18T14:07:19.243Z,9.00
2023-03-18T14:10:17.968Z,9.20
2023-03-18T14:12:50.293Z,9.30
2023-03-18T14:15:38.579Z,9.50
2023-03-18T14:18:27.730Z,9.20
2023-03-18T14:20:59.933Z,9.00
2023-03-18T14:23:38.755Z,9.00
2023-03-18T14:26:22.522Z,8.90
2023-03-18T14:28:56.356Z,9.00
2023-03-18T14:31:34.341Z,8.90
2023-03-18T14:34:19.564Z,8.70
2023-03-18T14:36:55.777Z,8.70
2023-03-18T14:39:37.348Z,8.70
2023-03-18T14:42:24.896Z,8.70
2023-03-18T14:44:55.322Z,8.70
2023-03-18T14:47:38.685Z,8.60
2023-03-18T14:50:08.394Z,8.60
2023-03-18T14:52:38.825Z,8.60
2023-03-18T14:55:21.370Z,8.50
2023-03-18T14:57:48.161Z,8.50
2023-03-18T15:00:19.181Z,8.50
2023-03-18T15:03:01.034Z,8.50
2023-03-18T15:05:33.278Z,8.40
2023-03-18T15:08:00.629Z,8.40
2023-03-18T15:10:31.470Z,8.50
2023-03-18T15:13:10.765Z,8.50
2023-03-18T15:15:38.125Z,8.40
2023-03-18T15:18:28.742Z,8.50
2023-03-18T15:21:12.576Z,8.40
2023-03-18T15:23:50.076Z,8.40
2023-03-18T15:26:22.201Z,8.40
2023-03-18T15:28:53.220Z,8.30
2023-03-18T15:31:27.552Z,8.30
2023-03-18T15:34:23.700Z,8.30
2023-03-18T15:36:59.617Z,8.30
2023-03-18T15:39:33.707Z,8.20
2023-03-18T15:42:01.714Z,8.20
2023-03-18T15:44:39.333Z,8.10
2023-03-18T15:47:27.953Z,8.00
2023-03-18T15:49:57.673Z,8.00
2023-03-18T15:52:36.557Z,7.80
2023-03-18T15:55:24.024Z,7.70
2023-03-18T15:57:54.155Z,7.70
2023-03-18T16:00:21.138Z,7.60
2023-03-18T16:02:48.185Z,7.50
2023-03-18T16:05:20.477Z,7.50
2023-03-18T16:07:48.957Z,7.40
2023-03-18T16:10:19.745Z,7.50
2023-03-18T16:12:48.973Z,7.40
2023-03-18T16:15:22.274Z,7.30
2023-03-18T16:17:53.585Z,7.30
2023-03-18T16:20:23.600Z,7.30
2023-03-18T16:22:51.043Z,7.20
2023-03-18T16:25:18.440Z,7.10
2023-03-18T16:27:51.040Z,7.20
2023-03-18T16:30:27.748Z,7.20
2023-03-18T16:32:55.588Z,7.20
2023-03-18T16:35:25.442Z,7.10
2023-03-18T16:37:53.347Z,7.00
2023-03-18T16:40:26.151Z,7.00
2023-03-18T16:42:53.467Z,7.00
2023-03-18T16:45:25.208Z,6.90
2023-03-18T16:47:58.304Z,7.00
2023-03-18T16:50:30.428Z,6.90
2023-03-18T16:52:57.533Z,6.90
2023-03-18T16:55:25.725Z,6.80
2023-03-18T16:57:59.904Z,6.90
2023-03-18T17:00:31.966Z,6.90
2023-03-18T17:03:00.445Z,6.80
2023-03-18T17:05:28.060Z,6.70
2023-03-18T17:07:55.377Z,6.80
2023-03-18T17:10:24.667Z,6.80
2023-03-18T17:12:56.144Z,6.70
2023-03-18T17:15:28.604Z,6.80
2023-03-18T17:17:58.238Z,6.70
2023-03-18T17:20:27.919Z,6.60
2023-03-18T17:22:55.592Z,6.60
2023-03-18T17:25:27.184Z,6.60
2023-03-18T17:28:06.253Z,6.50
2023-03-18T17:30:37.259Z,6.50
2023-03-18T17:33:16.350Z,6.50
2023-03-18T17:35:43.232Z,6.50
2023-03-18T17:38:10.973Z,6.40
2023-03-18T17:40:38.265Z,6.30
2023-03-18T17:43:05.042Z,6.40
2023-03-18T17:45:34.722Z,6.30
2023-03-18T17:48:22.066Z,6.30
2023-03-18T17:51:00.022Z,6.30
2023-03-18T17:53:37.449Z,6.20
2023-03-18T17:56:08.514Z,6.30
2023-03-18T17:58:35.594Z,6.30
2023-03-18T18:01:12.953Z,6.20
2023-03-18T18:03:40.585Z,6.20
2023-03-18T18:06:08.426Z,6.20
2023-03-18T18:08:36.182Z,6.20
2023-03-18T18:11:09.098Z,6.20
2023-03-18T18:13:35.951Z,6.20
2023-03-18T18:16:03.223Z,6.20
2023-03-18T18:18:30.265Z,6.20
2023-03-18T18:20:59.823Z,6.10
2023-03-18T18:23:33.446Z,5.90
2023-03-18T18:26:03.202Z,5.90
2023-03-18T18:28:41.690Z,5.90
2023-03-18T18:31:10.809Z,5.90
2023-03-18T18:33:39.253Z,5.70
2023-03-18T18:36:06.983Z,5.70
2023-03-18T18:38:33.833Z,5.90
2023-03-18T18:41:01.579Z,5.80
2023-03-18T18:43:29.065Z,5.70
2023-03-18T18:45:57.595Z,5.80
2023-03-18T18:48:37.871Z,5.70
2023-03-18T18:51:05.110Z,5.60
2023-03-18T18:53:36.760Z,5.40
2023-03-18T18:56:14.366Z,5.40
2023-03-18T18:58:42.216Z,5.40
2023-03-18T19:01:09.802Z,5.20
2023-03-18T19:03:36.630Z,5.20
2023-03-18T19:06:05.430Z,5.20
2023-03-18T19:08:36.367Z,5.20
2023-03-18T19:11:08.028Z,5.10
2023-03-18T19:13:36.495Z,5.00
2023-03-18T19:16:07.271Z,4.90
2023-03-18T19:18:44.056Z,4.90
2023-03-18T19:21:11.178Z,4.90
2023-03-18T19:23:38.043Z,4.90
2023-03-18T19:26:05.959Z,4.90
2023-03-18T19:28:58.516Z,5.00
2023-03-18T19:31:30.306Z,4.80
2023-03-18T19:33:59.641Z,4.90
2023-03-18T19:36:37.598Z,4.90
2023-03-18T19:39:05.117Z,4.80
2023-03-18T19:41:31.985Z,4.70
2023-03-18T19:44:04.141Z,4.70
2023-03-18T19:46:39.464Z,4.60
2023-03-18T19:49:17.808Z,4.70
2023-03-18T19:51:45.013Z,4.80
2023-03-18T19:54:31.540Z,4.70
2023-03-18T19:57:01.163Z,4.60
2023-03-18T19:59:33.685Z,4.50
2023-03-18T20:02:05.080Z,4.40
2023-03-18T20:04:31.959Z,4.40
2023-03-18T20:06:58.820Z,4.40
2023-03-18T20:09:25.764Z,4.30
2023-03-18T20:12:03.521Z,4.20
2023-03-18T20:14:37.904Z,4.30
2023-03-18T20:17:23.361Z,4.30
2023-03-18T20:19:50.915Z,4.30
2023-03-18T20:22:27.398Z,4.30
2023-03-18T20:24:54.594Z,4.40
2023-03-18T20:27:22.256Z,4.30
2023-03-18T20:29:49.405Z,4.40
2023-03-18T20:32:16.472Z,4.40
2023-03-18T20:34:44.019Z,4.30
2023-03-18T20:37:19.952Z,4.30
2023-03-18T20:39:47.082Z,4.30
2023-03-18T20:42:18.020Z,4.30
2023-03-18T20:44:46.080Z,4.30
2023-03-18T20:47:13.617Z,4.30
2023-03-18T20:49:44.527Z,4.30
2023-03-18T20:52:29.543Z,4.30
2023-03-18T20:54:57.080Z,4.30
2023-03-18T20:57:25.337Z,4.30
2023-03-18T20:59:52.207Z,4.30
2023-03-18T21:02:31.533Z,4.30
2023-03-18T21:05:00.429Z,4.40
2023-03-18T21:07:29.388Z,4.30
2023-03-18T21:09:56.299Z,4.20
2023-03-18T21:12:23.294Z,4.20
2023-03-18T21:14:50.652Z,4.20
2023-03-18T21:17:25.979Z,4.20
2023-03-18T21:20:00.722Z,4.20
2023-03-18T21:22:33.524Z,4.20
2023-03-18T21:25:00.296Z,4.20
2023-03-18T21:27:28.392Z,4.20
2023-03-18T21:29:57.989Z,4.10
2023-03-18T21:32:32.927Z,4.10
2023-03-18T21:35:00.036Z,4.10
2023-03-18T21:37:27.528Z,4.10
2023-03-18T21:39:54.465Z,4.10
2023-03-18T21:42:28.792Z,4.10
2023-03-18T21:44:57.561Z,4.10
2023-03-18T21:47:25.740Z,4.00
2023-03-18T21:49:52.643Z,4.00
2023-03-18T21:52:34.171Z,4.00
2023-03-18T21:55:03.054Z,4.10
2023-03-18T21:57:30.421Z,4.30
2023-03-18T21:59:57.192Z,4.50
2023-03-18T22:02:34.535Z,4.50
2023-03-18T22:05:03.964Z,4.50
2023-03-18T22:07:31.757Z,4.50
2023-03-18T22:09:58.836Z,4.30
2023-03-18T22:12:31.295Z,4.30
2023-03-18T22:14:59.477Z,4.30
2023-03-18T22:17:34.487Z,4.30
2023-03-18T22:20:02.302Z,4.10
2023-03-18T22:22:34.885Z,4.20
2023-03-18T22:25:01.865Z,4.30
2023-03-18T22:27:30.731Z,4.40
2023-03-18T22:29:59.462Z,4.40
2023-03-18T22:32:45.873Z,4.30
2023-03-18T22:35:16.982Z,4.40
2023-03-18T22:37:44.279Z,4.50
2023-03-18T22:40:18.813Z,4.50
2023-03-18T22:42:51.238Z,4.60
2023-03-18T22:45:33.104Z,4.60
2023-03-18T22:48:03.558Z,4.50
2023-03-18T22:50:34.334Z,4.50
2023-03-18T22:53:07.593Z,4.60
2023-03-18T22:55:39.554Z,4.60
2023-03-18T22:58:14.586Z,4.70
2023-03-18T23:00:44.811Z,4.70
2023-03-18T23:03:18.559Z,4.70
2023-03-18T23:05:51.543Z,4.70
2023-03-18T23:08:19.385Z,4.80
2023-03-18T23:10:47.022Z,4.80
2023-03-18T23:13:27.603Z,4.70
2023-03-18T23:15:54.466Z,4.70
2023-03-18T23:18:21.574Z,4.60
2023-03-18T23:20:50.658Z,4.60
2023-03-18T23:23:18.102Z,4.50
2023-03-18T23:25:46.104Z,4.70
2023-03-18T23:28:13.693Z,4.70
2023-03-18T23:30:42.049Z,4.70
2023-03-18T23:33:09.524Z,4.70
2023-03-18T23:35:38.191Z,4.80
2023-03-18T23:38:06.602Z,4.70
2023-03-18T23:40:34.264Z,4.60
2023-03-18T23:43:01.041Z,4.70
2023-03-18T23:45:28.118Z,4.70
2023-03-18T23:47:56.488Z,4.60
2023-03-18T23:50:23.590Z,4.60
2023-03-18T23:52:50.445Z,4.50
2023-03-18T23:55:33.168Z,4.50
2023-03-18T23:58:01.489Z,4.50
